sensor_id;sensor_type;location;lat;lon;timestamp;temperature;humidity
70986;DHT22;58645;43.068;25.610;2024-03-02T00:00:01;8.60;99.90
70986;DHT22;58645;43.068;25.610;2024-03-02T00:02:42;8.60;99.90
70986;DHT22;58645;43.068;25.610;2024-03-02T00:05:16;8.60;99.90
70986;DHT22;58645;43.068;25.610;2024-03-02T00:07:44;8.60;99.90
70986;DHT22;58645;43.068;25.610;2024-03-02T00:10:11;8.60;99.90
70986;DHT22;58645;43.068;25.610;2024-03-02T00:12:38;8.60;99.90
70986;DHT22;58645;43.068;25.610;2024-03-02T00:17:56;8.70;99.90
70986;DHT22;58645;43.068;25.610;2024-03-02T00:20:22;8.70;99.90
70986;DHT22;58645;43.068;25.610;2024-03-02T00:22:50;8.70;99.90
70986;DHT22;58645;43.068;25.610;2024-03-02T00:25:16;8.70;99.90
70986;DHT22;58645;43.068;25.610;2024-03-02T00:27:42;8.70;99.90
70986;DHT22;58645;43.068;25.610;2024-03-02T00:32:59;8.80;99.90
70986;DHT22;58645;43.068;25.610;2024-03-02T00:35:25;8.70;99.90
70986;DHT22;58645;43.068;25.610;2024-03-02T00:37:50;8.70;99.90
70986;DHT22;58645;43.068;25.610;2024-03-02T00:40:17;8.70;99.90
70986;DHT22;58645;43.068;25.610;2024-03-02T00:42:42;8.70;99.90
70986;DHT22;58645;43.068;25.610;2024-03-02T00:45:08;8.80;99.90
70986;DHT22;58645;43.068;25.610;2024-03-02T00:47:41;8.70;99.90
70986;DHT22;58645;43.068;25.610;2024-03-02T00:50:07;8.80;99.90
70986;DHT22;58645;43.068;25.610;2024-03-02T00:52:34;8.70;99.90
70986;DHT22;58645;43.068;25.610;2024-03-02T00:55:00;8.70;99.90
70986;DHT22;58645;43.068;25.610;2024-03-02T00:57:27;8.70;99.90
70986;DHT22;58645;43.068;25.610;2024-03-02T00:59:54;8.70;99.90
70986;DHT22;58645;43.068;25.610;2024-03-02T01:02:20;8.70;99.90
70986;DHT22;58645;43.068;25.610;2024-03-02T01:04:45;8.70;99.90
70986;DHT22;58645;43.068;25.610;2024-03-02T01:07:11;8.70;99.90
70986;DHT22;58645;43.068;25.610;2024-03-02T01:09:37;8.70;99.90
70986;DHT22;58645;43.068;25.610;2024-03-02T01:12:03;8.70;99.90
70986;DHT22;58645;43.068;25.610;2024-03-02T01:14:28;8.60;99.90
70986;DHT22;58645;43.068;25.610;2024-03-02T01:16:54;8.60;99.90
70986;DHT22;58645;43.068;25.610;2024-03-02T01:19:20;8.60;99.90
70986;DHT22;58645;43.068;25.610;2024-03-02T01:21:46;8.60;99.90
70986;DHT22;58645;43.068;25.610;2024-03-02T01:24:12;8.60;99.90
70986;DHT22;58645;43.068;25.610;2024-03-02T01:26:38;8.60;99.90
70986;DHT22;58645;43.068;25.610;2024-03-02T01:29:04;8.60;99.90
70986;DHT22;58645;43.068;25.610;2024-03-02T01:31:30;8.60;99.90
70986;DHT22;58645;43.068;25.610;2024-03-02T01:33:55;8.60;99.90
70986;DHT22;58645;43.068;25.610;2024-03-02T01:36:21;8.60;99.90
70986;DHT22;58645;43.068;25.610;2024-03-02T01:38:47;8.60;99.90
70986;DHT22;58645;43.068;25.610;2024-03-02T01:41:13;8.60;99.90
70986;DHT22;58645;43.068;25.610;2024-03-02T01:43:39;8.60;99.90
70986;DHT22;58645;43.068;25.610;2024-03-02T01:46:04;8.70;99.90
70986;DHT22;58645;43.068;25.610;2024-03-02T01:48:30;8.70;99.90
70986;DHT22;58645;43.068;25.610;2024-03-02T01:50:56;8.70;99.90
70986;DHT22;58645;43.068;25.610;2024-03-02T01:53:22;8.70;99.90
70986;DHT22;58645;43.068;25.610;2024-03-02T01:55:47;8.70;99.90
70986;DHT22;58645;43.068;25.610;2024-03-02T01:58:13;8.70;99.90
70986;DHT22;58645;43.068;25.610;2024-03-02T02:00:39;8.70;99.90
70986;DHT22;58645;43.068;25.610;2024-03-02T02:03:05;8.70;99.90
70986;DHT22;58645;43.068;25.610;2024-03-02T02:05:32;8.70;99.90
70986;DHT22;58645;43.068;25.610;2024-03-02T02:07:58;8.70;99.90
70986;DHT22;58645;43.068;25.610;2024-03-02T02:10:24;8.70;99.90
70986;DHT22;58645;43.068;25.610;2024-03-02T02:12:50;8.70;99.90
70986;DHT22;58645;43.068;25.610;2024-03-02T02:15:25;8.70;99.90
70986;DHT22;58645;43.068;25.610;2024-03-02T02:17:51;8.70;99.90
70986;DHT22;58645;43.068;25.610;2024-03-02T02:20:18;8.70;99.90
70986;DHT22;58645;43.068;25.610;2024-03-02T02:23:00;8.70;99.90
70986;DHT22;58645;43.068;25.610;2024-03-02T02:25:27;8.70;99.90
70986;DHT22;58645;43.068;25.610;2024-03-02T02:27:53;8.70;99.90
70986;DHT22;58645;43.068;25.610;2024-03-02T02:30:23;8.70;99.90
70986;DHT22;58645;43.068;25.610;2024-03-02T02:32:49;8.70;99.90
70986;DHT22;58645;43.068;25.610;2024-03-02T02:35:15;8.70;99.90
70986;DHT22;58645;43.068;25.610;2024-03-02T02:37:41;8.60;99.90
70986;DHT22;58645;43.068;25.610;2024-03-02T02:40:08;8.60;99.90
70986;DHT22;58645;43.068;25.610;2024-03-02T02:42:34;8.60;99.90
70986;DHT22;58645;43.068;25.610;2024-03-02T02:45:00;8.70;99.90
70986;DHT22;58645;43.068;25.610;2024-03-02T02:47:26;8.60;99.90
70986;DHT22;58645;43.068;25.610;2024-03-02T02:49:51;8.60;99.90
70986;DHT22;58645;43.068;25.610;2024-03-02T02:52:17;8.60;99.90
70986;DHT22;58645;43.068;25.610;2024-03-02T02:54:44;8.60;99.90
70986;DHT22;58645;43.068;25.610;2024-03-02T02:57:09;8.60;99.90
70986;DHT22;58645;43.068;25.610;2024-03-02T02:59:36;8.60;99.90
70986;DHT22;58645;43.068;25.610;2024-03-02T03:02:02;8.60;99.90
70986;DHT22;58645;43.068;25.610;2024-03-02T03:04:28;8.60;99.90
70986;DHT22;58645;43.068;25.610;2024-03-02T03:06:53;8.60;99.90
70986;DHT22;58645;43.068;25.610;2024-03-02T03:09:19;8.60;99.90
70986;DHT22;58645;43.068;25.610;2024-03-02T03:11:45;8.60;99.90
70986;DHT22;58645;43.068;25.610;2024-03-02T03:14:10;8.60;99.90
70986;DHT22;58645;43.068;25.610;2024-03-02T03:16:36;8.60;99.90
70986;DHT22;58645;43.068;25.610;2024-03-02T03:19:02;8.70;99.90
70986;DHT22;58645;43.068;25.610;2024-03-02T03:21:28;8.60;99.90
70986;DHT22;58645;43.068;25.610;2024-03-02T03:23:54;8.70;99.90
70986;DHT22;58645;43.068;25.610;2024-03-02T03:26:20;8.60;99.90
70986;DHT22;58645;43.068;25.610;2024-03-02T03:28:46;8.60;99.90
70986;DHT22;58645;43.068;25.610;2024-03-02T03:31:12;8.60;99.90
70986;DHT22;58645;43.068;25.610;2024-03-02T03:33:37;8.60;99.90
70986;DHT22;58645;43.068;25.610;2024-03-02T03:36:03;8.60;99.90
70986;DHT22;58645;43.068;25.610;2024-03-02T03:38:29;8.50;99.90
70986;DHT22;58645;43.068;25.610;2024-03-02T03:40:55;8.50;99.90
70986;DHT22;58645;43.068;25.610;2024-03-02T03:43:21;8.50;99.90
70986;DHT22;58645;43.068;25.610;2024-03-02T03:45:47;8.50;99.90
70986;DHT22;58645;43.068;25.610;2024-03-02T03:48:13;8.50;99.90
70986;DHT22;58645;43.068;25.610;2024-03-02T03:50:38;8.50;99.90
70986;DHT22;58645;43.068;25.610;2024-03-02T03:53:04;8.50;99.90
70986;DHT22;58645;43.068;25.610;2024-03-02T03:55:30;8.50;99.90
70986;DHT22;58645;43.068;25.610;2024-03-02T03:57:56;8.60;99.90
70986;DHT22;58645;43.068;25.610;2024-03-02T04:00:21;8.50;99.90
70986;DHT22;58645;43.068;25.610;2024-03-02T04:02:47;8.50;99.90
70986;DHT22;58645;43.068;25.610;2024-03-02T04:05:13;8.50;99.90
70986;DHT22;58645;43.068;25.610;2024-03-02T04:07:39;8.50;99.90
70986;DHT22;58645;43.068;25.610;2024-03-02T04:10:11;8.50;99.90
70986;DHT22;58645;43.068;25.610;2024-03-02T04:12:38;8.50;99.90
70986;DHT22;58645;43.068;25.610;2024-03-02T04:15:07;8.50;99.90
70986;DHT22;58645;43.068;25.610;2024-03-02T04:17:33;8.50;99.90
70986;DHT22;58645;43.068;25.610;2024-03-02T04:19:59;8.40;99.90
70986;DHT22;58645;43.068;25.610;2024-03-02T04:22:26;8.50;99.90
70986;DHT22;58645;43.068;25.610;2024-03-02T04:24:52;8.50;99.90
70986;DHT22;58645;43.068;25.610;2024-03-02T04:27:18;8.50;99.90
70986;DHT22;58645;43.068;25.610;2024-03-02T04:29:44;8.50;99.90
70986;DHT22;58645;43.068;25.610;2024-03-02T04:32:10;8.60;99.90
70986;DHT22;58645;43.068;25.610;2024-03-02T04:34:35;8.60;99.90
70986;DHT22;58645;43.068;25.610;2024-03-02T04:37:01;8.60;99.90
70986;DHT22;58645;43.068;25.610;2024-03-02T04:39:27;8.50;99.90
70986;DHT22;58645;43.068;25.610;2024-03-02T04:41:52;8.60;99.90
70986;DHT22;58645;43.068;25.610;2024-03-02T04:44:18;8.60;99.90
70986;DHT22;58645;43.068;25.610;2024-03-02T04:46:44;8.60;99.90
70986;DHT22;58645;43.068;25.610;2024-03-02T04:49:09;8.60;99.90
70986;DHT22;58645;43.068;25.610;2024-03-02T04:51:35;8.50;99.90
70986;DHT22;58645;43.068;25.610;2024-03-02T04:54:01;8.50;99.90
70986;DHT22;58645;43.068;25.610;2024-03-02T04:56:27;8.50;99.90
70986;DHT22;58645;43.068;25.610;2024-03-02T04:58:59;8.40;99.90
70986;DHT22;58645;43.068;25.610;2024-03-02T05:01:24;8.30;99.90
70986;DHT22;58645;43.068;25.610;2024-03-02T05:03:50;8.30;99.90
70986;DHT22;58645;43.068;25.610;2024-03-02T05:06:16;8.30;99.90
70986;DHT22;58645;43.068;25.610;2024-03-02T05:08:41;8.30;99.90
70986;DHT22;58645;43.068;25.610;2024-03-02T05:11:07;8.30;99.90
70986;DHT22;58645;43.068;25.610;2024-03-02T05:13:51;8.30;99.90
70986;DHT22;58645;43.068;25.610;2024-03-02T05:16:17;8.20;99.90
70986;DHT22;58645;43.068;25.610;2024-03-02T05:18:43;8.30;99.90
70986;DHT22;58645;43.068;25.610;2024-03-02T05:21:08;8.30;99.90
70986;DHT22;58645;43.068;25.610;2024-03-02T05:23:34;8.30;99.90
70986;DHT22;58645;43.068;25.610;2024-03-02T05:26:00;8.30;99.90
70986;DHT22;58645;43.068;25.610;2024-03-02T05:28:25;8.40;99.90
70986;DHT22;58645;43.068;25.610;2024-03-02T05:30:51;8.40;99.90
70986;DHT22;58645;43.068;25.610;2024-03-02T05:33:17;8.40;99.90
70986;DHT22;58645;43.068;25.610;2024-03-02T05:35:44;8.30;99.90
70986;DHT22;58645;43.068;25.610;2024-03-02T05:38:09;8.30;99.90
70986;DHT22;58645;43.068;25.610;2024-03-02T05:40:35;8.30;99.90
70986;DHT22;58645;43.068;25.610;2024-03-02T05:43:01;8.30;99.90
70986;DHT22;58645;43.068;25.610;2024-03-02T05:45:27;8.30;99.90
70986;DHT22;58645;43.068;25.610;2024-03-02T05:47:52;8.30;99.90
70986;DHT22;58645;43.068;25.610;2024-03-02T05:50:18;8.40;99.90
70986;DHT22;58645;43.068;25.610;2024-03-02T05:52:45;8.40;99.90
70986;DHT22;58645;43.068;25.610;2024-03-02T05:55:11;8.30;99.90
70986;DHT22;58645;43.068;25.610;2024-03-02T05:57:36;8.40;99.90
70986;DHT22;58645;43.068;25.610;2024-03-02T06:00:21;8.40;99.90
70986;DHT22;58645;43.068;25.610;2024-03-02T06:02:47;8.40;99.90
70986;DHT22;58645;43.068;25.610;2024-03-02T06:05:13;8.40;99.90
70986;DHT22;58645;43.068;25.610;2024-03-02T06:07:40;8.40;99.90
70986;DHT22;58645;43.068;25.610;2024-03-02T06:10:06;8.40;99.90
70986;DHT22;58645;43.068;25.610;2024-03-02T06:12:34;8.40;99.90
70986;DHT22;58645;43.068;25.610;2024-03-02T06:15:00;8.40;99.90
70986;DHT22;58645;43.068;25.610;2024-03-02T06:17:26;8.40;99.90
70986;DHT22;58645;43.068;25.610;2024-03-02T06:19:51;8.40;99.90
70986;DHT22;58645;43.068;25.610;2024-03-02T06:22:17;8.40;99.90
70986;DHT22;58645;43.068;25.610;2024-03-02T06:24:44;8.50;99.90
70986;DHT22;58645;43.068;25.610;2024-03-02T06:27:10;8.60;99.90
70986;DHT22;58645;43.068;25.610;2024-03-02T06:29:36;8.50;99.90
70986;DHT22;58645;43.068;25.610;2024-03-02T06:32:01;8.40;99.90
70986;DHT22;58645;43.068;25.610;2024-03-02T06:34:27;8.50;99.90
70986;DHT22;58645;43.068;25.610;2024-03-02T06:36:53;8.60;99.90
70986;DHT22;58645;43.068;25.610;2024-03-02T06:39:19;8.70;99.90
70986;DHT22;58645;43.068;25.610;2024-03-02T06:41:44;8.70;99.90
70986;DHT22;58645;43.068;25.610;2024-03-02T06:44:13;8.80;99.90
70986;DHT22;58645;43.068;25.610;2024-03-02T06:46:38;8.80;99.90
70986;DHT22;58645;43.068;25.610;2024-03-02T06:49:04;8.80;99.90
70986;DHT22;58645;43.068;25.610;2024-03-02T06:51:30;8.80;99.90
70986;DHT22;58645;43.068;25.610;2024-03-02T06:53:56;8.90;99.90
70986;DHT22;58645;43.068;25.610;2024-03-02T06:56:22;8.90;99.90
70986;DHT22;58645;43.068;25.610;2024-03-02T06:58:48;8.90;99.90
70986;DHT22;58645;43.068;25.610;2024-03-02T07:01:13;9.00;99.90
70986;DHT22;58645;43.068;25.610;2024-03-02T07:03:39;9.10;99.90
70986;DHT22;58645;43.068;25.610;2024-03-02T07:06:05;9.10;99.90
70986;DHT22;58645;43.068;25.610;2024-03-02T07:08:31;9.00;99.90
70986;DHT22;58645;43.068;25.610;2024-03-02T07:10:57;9.00;99.90
70986;DHT22;58645;43.068;25.610;2024-03-02T07:13:23;9.00;99.90
70986;DHT22;58645;43.068;25.610;2024-03-02T07:15:48;9.10;99.90
70986;DHT22;58645;43.068;25.610;2024-03-02T07:18:40;9.10;99.90
70986;DHT22;58645;43.068;25.610;2024-03-02T07:21:11;9.10;99.90
70986;DHT22;58645;43.068;25.610;2024-03-02T07:23:36;9.30;99.90
70986;DHT22;58645;43.068;25.610;2024-03-02T07:26:02;9.40;99.90
70986;DHT22;58645;43.068;25.610;2024-03-02T07:28:28;9.40;99.90
70986;DHT22;58645;43.068;25.610;2024-03-02T07:31:01;9.40;99.90
70986;DHT22;58645;43.068;25.610;2024-03-02T07:33:27;9.40;99.90
70986;DHT22;58645;43.068;25.610;2024-03-02T07:35:54;9.50;99.90
70986;DHT22;58645;43.068;25.610;2024-03-02T07:38:21;9.50;99.90
70986;DHT22;58645;43.068;25.610;2024-03-02T07:40:48;9.60;99.90
70986;DHT22;58645;43.068;25.610;2024-03-02T07:43:17;9.70;99.90
70986;DHT22;58645;43.068;25.610;2024-03-02T07:45:43;9.60;99.90
70986;DHT22;58645;43.068;25.610;2024-03-02T07:48:09;9.70;99.90
70986;DHT22;58645;43.068;25.610;2024-03-02T07:50:35;9.70;99.90
70986;DHT22;58645;43.068;25.610;2024-03-02T07:53:01;9.80;99.90
70986;DHT22;58645;43.068;25.610;2024-03-02T07:55:27;9.80;99.90
70986;DHT22;58645;43.068;25.610;2024-03-02T07:57:53;9.70;99.90
70986;DHT22;58645;43.068;25.610;2024-03-02T08:00:18;9.80;99.90
70986;DHT22;58645;43.068;25.610;2024-03-02T08:02:44;10.00;99.90
70986;DHT22;58645;43.068;25.610;2024-03-02T08:05:10;10.00;99.90
70986;DHT22;58645;43.068;25.610;2024-03-02T08:07:36;10.00;99.90
70986;DHT22;58645;43.068;25.610;2024-03-02T08:10:02;10.00;99.90
70986;DHT22;58645;43.068;25.610;2024-03-02T08:12:29;10.10;99.90
70986;DHT22;58645;43.068;25.610;2024-03-02T08:14:54;10.10;99.90
70986;DHT22;58645;43.068;25.610;2024-03-02T08:17:20;10.30;99.90
70986;DHT22;58645;43.068;25.610;2024-03-02T08:19:48;10.30;99.90
70986;DHT22;58645;43.068;25.610;2024-03-02T08:22:15;10.30;99.90
70986;DHT22;58645;43.068;25.610;2024-03-02T08:24:41;10.40;99.90
70986;DHT22;58645;43.068;25.610;2024-03-02T08:27:06;10.30;99.90
70986;DHT22;58645;43.068;25.610;2024-03-02T08:29:32;10.30;99.90
70986;DHT22;58645;43.068;25.610;2024-03-02T08:31:58;10.40;99.90
70986;DHT22;58645;43.068;25.610;2024-03-02T08:34:24;10.50;99.90
70986;DHT22;58645;43.068;25.610;2024-03-02T08:36:49;10.50;99.90
70986;DHT22;58645;43.068;25.610;2024-03-02T08:39:15;10.40;99.90
70986;DHT22;58645;43.068;25.610;2024-03-02T08:41:42;10.40;99.90
70986;DHT22;58645;43.068;25.610;2024-03-02T08:44:09;10.60;99.90
70986;DHT22;58645;43.068;25.610;2024-03-02T08:46:35;10.70;99.90
70986;DHT22;58645;43.068;25.610;2024-03-02T08:49:00;10.80;99.90
70986;DHT22;58645;43.068;25.610;2024-03-02T08:51:26;10.80;99.90
70986;DHT22;58645;43.068;25.610;2024-03-02T08:53:52;10.90;99.90
70986;DHT22;58645;43.068;25.610;2024-03-02T08:56:17;11.00;99.90
70986;DHT22;58645;43.068;25.610;2024-03-02T08:58:43;11.10;99.90
70986;DHT22;58645;43.068;25.610;2024-03-02T09:01:10;11.30;99.90
70986;DHT22;58645;43.068;25.610;2024-03-02T09:03:36;11.30;99.90
70986;DHT22;58645;43.068;25.610;2024-03-02T09:06:03;11.20;99.90
70986;DHT22;58645;43.068;25.610;2024-03-02T09:08:28;11.00;99.90
70986;DHT22;58645;43.068;25.610;2024-03-02T09:10:55;11.10;99.90
70986;DHT22;58645;43.068;25.610;2024-03-02T09:13:21;11.00;99.90
70986;DHT22;58645;43.068;25.610;2024-03-02T09:15:48;11.00;99.90
70986;DHT22;58645;43.068;25.610;2024-03-02T09:18:13;11.10;99.90
70986;DHT22;58645;43.068;25.610;2024-03-02T09:20:39;11.20;99.90
70986;DHT22;58645;43.068;25.610;2024-03-02T09:23:05;11.40;99.90
70986;DHT22;58645;43.068;25.610;2024-03-02T09:25:31;11.70;99.90
70986;DHT22;58645;43.068;25.610;2024-03-02T09:27:56;11.60;99.90
70986;DHT22;58645;43.068;25.610;2024-03-02T09:30:22;11.90;99.90
70986;DHT22;58645;43.068;25.610;2024-03-02T09:32:48;12.10;99.90
70986;DHT22;58645;43.068;25.610;2024-03-02T09:35:13;12.10;99.90
70986;DHT22;58645;43.068;25.610;2024-03-02T09:37:39;12.10;99.90
70986;DHT22;58645;43.068;25.610;2024-03-02T09:40:05;12.20;99.90
70986;DHT22;58645;43.068;25.610;2024-03-02T09:42:32;12.10;99.90
70986;DHT22;58645;43.068;25.610;2024-03-02T09:44:58;11.90;99.90
70986;DHT22;58645;43.068;25.610;2024-03-02T09:47:24;11.90;99.90
70986;DHT22;58645;43.068;25.610;2024-03-02T09:49:49;11.80;99.90
70986;DHT22;58645;43.068;25.610;2024-03-02T09:52:16;11.70;99.90
70986;DHT22;58645;43.068;25.610;2024-03-02T09:54:42;11.70;99.90
70986;DHT22;58645;43.068;25.610;2024-03-02T09:57:08;11.90;99.90
70986;DHT22;58645;43.068;25.610;2024-03-02T09:59:33;12.10;99.90
70986;DHT22;58645;43.068;25.610;2024-03-02T10:02:00;12.00;99.90
70986;DHT22;58645;43.068;25.610;2024-03-02T10:04:28;12.00;99.90
70986;DHT22;58645;43.068;25.610;2024-03-02T10:07:13;12.00;99.90
70986;DHT22;58645;43.068;25.610;2024-03-02T10:09:43;11.70;99.90
70986;DHT22;58645;43.068;25.610;2024-03-02T10:12:11;11.80;99.90
70986;DHT22;58645;43.068;25.610;2024-03-02T10:14:38;12.00;99.90
70986;DHT22;58645;43.068;25.610;2024-03-02T10:17:09;12.10;99.90
70986;DHT22;58645;43.068;25.610;2024-03-02T10:19:36;12.00;99.90
70986;DHT22;58645;43.068;25.610;2024-03-02T10:22:09;12.10;99.90
70986;DHT22;58645;43.068;25.610;2024-03-02T10:27:09;12.00;99.90
70986;DHT22;58645;43.068;25.610;2024-03-02T10:29:40;11.80;99.90
70986;DHT22;58645;43.068;25.610;2024-03-02T10:32:09;11.70;99.90
70986;DHT22;58645;43.068;25.610;2024-03-02T10:34:35;11.70;99.90
70986;DHT22;58645;43.068;25.610;2024-03-02T10:37:01;11.90;99.90
70986;DHT22;58645;43.068;25.610;2024-03-02T10:39:28;11.80;99.90
70986;DHT22;58645;43.068;25.610;2024-03-02T10:41:55;12.00;99.90
70986;DHT22;58645;43.068;25.610;2024-03-02T10:44:22;12.10;99.90
70986;DHT22;58645;43.068;25.610;2024-03-02T10:46:49;12.20;99.90
70986;DHT22;58645;43.068;25.610;2024-03-02T10:49:15;12.60;99.90
70986;DHT22;58645;43.068;25.610;2024-03-02T10:51:41;12.70;99.90
70986;DHT22;58645;43.068;25.610;2024-03-02T10:54:07;12.70;99.90
70986;DHT22;58645;43.068;25.610;2024-03-02T10:56:42;12.90;99.90
70986;DHT22;58645;43.068;25.610;2024-03-02T10:59:33;12.90;99.90
70986;DHT22;58645;43.068;25.610;2024-03-02T11:02:00;13.00;99.90
70986;DHT22;58645;43.068;25.610;2024-03-02T11:04:27;13.20;99.90
70986;DHT22;58645;43.068;25.610;2024-03-02T11:07:00;13.30;99.90
70986;DHT22;58645;43.068;25.610;2024-03-02T11:09:28;13.20;99.90
70986;DHT22;58645;43.068;25.610;2024-03-02T11:12:12;12.90;99.90
70986;DHT22;58645;43.068;25.610;2024-03-02T11:14:41;13.10;99.90
70986;DHT22;58645;43.068;25.610;2024-03-02T11:17:11;13.10;99.90
70986;DHT22;58645;43.068;25.610;2024-03-02T11:19:40;13.20;99.90
70986;DHT22;58645;43.068;25.610;2024-03-02T11:22:06;13.30;99.90
70986;DHT22;58645;43.068;25.610;2024-03-02T11:24:33;13.40;99.90
70986;DHT22;58645;43.068;25.610;2024-03-02T11:27:02;13.40;99.90
70986;DHT22;58645;43.068;25.610;2024-03-02T11:32:16;13.30;99.90
70986;DHT22;58645;43.068;25.610;2024-03-02T11:34:45;13.20;99.90
70986;DHT22;58645;43.068;25.610;2024-03-02T11:37:16;13.30;99.90
70986;DHT22;58645;43.068;25.610;2024-03-02T11:39:46;13.40;99.90
70986;DHT22;58645;43.068;25.610;2024-03-02T11:42:13;13.50;99.90
70986;DHT22;58645;43.068;25.610;2024-03-02T11:44:50;13.30;99.90
70986;DHT22;58645;43.068;25.610;2024-03-02T11:47:16;13.30;99.90
70986;DHT22;58645;43.068;25.610;2024-03-02T11:49:49;13.50;99.90
70986;DHT22;58645;43.068;25.610;2024-03-02T11:52:17;13.50;99.90
70986;DHT22;58645;43.068;25.610;2024-03-02T11:54:47;13.70;99.90
70986;DHT22;58645;43.068;25.610;2024-03-02T11:57:15;13.70;99.90
70986;DHT22;58645;43.068;25.610;2024-03-02T11:59:42;13.70;99.90
70986;DHT22;58645;43.068;25.610;2024-03-02T12:02:12;13.70;99.90
70986;DHT22;58645;43.068;25.610;2024-03-02T12:04:40;13.60;99.90
70986;DHT22;58645;43.068;25.610;2024-03-02T12:07:05;13.60;99.90
70986;DHT22;58645;43.068;25.610;2024-03-02T12:09:31;13.70;99.90
70986;DHT22;58645;43.068;25.610;2024-03-02T12:14:30;13.60;99.90
70986;DHT22;58645;43.068;25.610;2024-03-02T12:16:56;13.60;99.90
70986;DHT22;58645;43.068;25.610;2024-03-02T12:19:27;13.50;99.90
70986;DHT22;58645;43.068;25.610;2024-03-02T12:22:01;13.40;99.90
70986;DHT22;58645;43.068;25.610;2024-03-02T12:24:28;13.10;99.90
70986;DHT22;58645;43.068;25.610;2024-03-02T12:26:54;12.90;99.90
70986;DHT22;58645;43.068;25.610;2024-03-02T12:29:21;12.30;99.90
70986;DHT22;58645;43.068;25.610;2024-03-02T12:31:53;12.70;99.90
70986;DHT22;58645;43.068;25.610;2024-03-02T12:34:19;12.60;99.90
70986;DHT22;58645;43.068;25.610;2024-03-02T12:36:46;12.50;99.90
70986;DHT22;58645;43.068;25.610;2024-03-02T12:39:18;12.30;99.90
70986;DHT22;58645;43.068;25.610;2024-03-02T12:41:46;12.40;99.90
70986;DHT22;58645;43.068;25.610;2024-03-02T12:44:12;12.40;99.90
70986;DHT22;58645;43.068;25.610;2024-03-02T12:46:38;12.50;99.90
70986;DHT22;58645;43.068;25.610;2024-03-02T12:49:22;12.50;99.90
70986;DHT22;58645;43.068;25.610;2024-03-02T12:51:48;12.50;99.90
70986;DHT22;58645;43.068;25.610;2024-03-02T12:54:17;12.50;99.90
70986;DHT22;58645;43.068;25.610;2024-03-02T12:56:43;12.50;99.90
70986;DHT22;58645;43.068;25.610;2024-03-02T12:59:19;12.70;99.90
70986;DHT22;58645;43.068;25.610;2024-03-02T13:01:51;12.70;99.90
70986;DHT22;58645;43.068;25.610;2024-03-02T13:04:17;12.50;99.90
70986;DHT22;58645;43.068;25.610;2024-03-02T13:06:42;12.60;99.90
70986;DHT22;58645;43.068;25.610;2024-03-02T13:09:08;12.60;99.90
70986;DHT22;58645;43.068;25.610;2024-03-02T13:11:41;12.70;99.90
70986;DHT22;58645;43.068;25.610;2024-03-02T13:14:07;12.70;99.90
70986;DHT22;58645;43.068;25.610;2024-03-02T13:16:41;12.70;99.90
70986;DHT22;58645;43.068;25.610;2024-03-02T13:19:08;12.80;99.90
70986;DHT22;58645;43.068;25.610;2024-03-02T13:21:35;12.70;99.90
70986;DHT22;58645;43.068;25.610;2024-03-02T13:24:00;12.60;99.90
70986;DHT22;58645;43.068;25.610;2024-03-02T13:26:26;12.60;99.90
70986;DHT22;58645;43.068;25.610;2024-03-02T13:28:53;12.50;99.90
70986;DHT22;58645;43.068;25.610;2024-03-02T13:31:18;12.50;99.90
70986;DHT22;58645;43.068;25.610;2024-03-02T13:33:44;12.40;99.90
70986;DHT22;58645;43.068;25.610;2024-03-02T13:36:10;12.30;99.90
70986;DHT22;58645;43.068;25.610;2024-03-02T13:38:36;12.20;99.90
70986;DHT22;58645;43.068;25.610;2024-03-02T13:41:02;12.30;99.90
70986;DHT22;58645;43.068;25.610;2024-03-02T13:43:27;12.20;99.90
70986;DHT22;58645;43.068;25.610;2024-03-02T13:45:57;12.10;99.90
70986;DHT22;58645;43.068;25.610;2024-03-02T13:48:23;11.90;99.90
70986;DHT22;58645;43.068;25.610;2024-03-02T13:50:52;11.90;99.90
70986;DHT22;58645;43.068;25.610;2024-03-02T13:53:19;11.80;99.90
70986;DHT22;58645;43.068;25.610;2024-03-02T13:55:45;11.70;99.90
70986;DHT22;58645;43.068;25.610;2024-03-02T13:58:11;11.50;99.90
70986;DHT22;58645;43.068;25.610;2024-03-02T14:00:37;11.50;99.90
70986;DHT22;58645;43.068;25.610;2024-03-02T14:03:06;11.50;99.90
70986;DHT22;58645;43.068;25.610;2024-03-02T14:05:33;11.40;99.90
70986;DHT22;58645;43.068;25.610;2024-03-02T14:07:58;11.40;99.90
70986;DHT22;58645;43.068;25.610;2024-03-02T14:10:26;11.40;99.90
70986;DHT22;58645;43.068;25.610;2024-03-02T14:12:52;11.40;99.90
70986;DHT22;58645;43.068;25.610;2024-03-02T14:15:18;11.40;99.90
70986;DHT22;58645;43.068;25.610;2024-03-02T14:17:44;11.40;99.90
70986;DHT22;58645;43.068;25.610;2024-03-02T14:20:10;11.50;99.90
70986;DHT22;58645;43.068;25.610;2024-03-02T14:22:37;11.50;99.90
70986;DHT22;58645;43.068;25.610;2024-03-02T14:25:04;11.50;99.90
70986;DHT22;58645;43.068;25.610;2024-03-02T14:27:30;11.50;99.90
70986;DHT22;58645;43.068;25.610;2024-03-02T14:29:56;11.50;99.90
70986;DHT22;58645;43.068;25.610;2024-03-02T14:32:21;11.50;99.90
70986;DHT22;58645;43.068;25.610;2024-03-02T14:34:47;11.50;99.90
70986;DHT22;58645;43.068;25.610;2024-03-02T14:37:17;11.40;99.90
70986;DHT22;58645;43.068;25.610;2024-03-02T14:39:42;11.30;99.90
70986;DHT22;58645;43.068;25.610;2024-03-02T14:42:08;11.30;99.90
70986;DHT22;58645;43.068;25.610;2024-03-02T14:44:34;11.30;99.90
70986;DHT22;58645;43.068;25.610;2024-03-02T14:47:01;11.30;99.90
70986;DHT22;58645;43.068;25.610;2024-03-02T14:49:29;11.30;99.90
70986;DHT22;58645;43.068;25.610;2024-03-02T14:51:55;11.30;99.90
70986;DHT22;58645;43.068;25.610;2024-03-02T14:54:21;11.20;99.90
70986;DHT22;58645;43.068;25.610;2024-03-02T14:56:47;11.10;99.90
70986;DHT22;58645;43.068;25.610;2024-03-02T14:59:13;11.10;99.90
70986;DHT22;58645;43.068;25.610;2024-03-02T15:01:40;11.10;99.90
70986;DHT22;58645;43.068;25.610;2024-03-02T15:04:06;11.10;99.90
70986;DHT22;58645;43.068;25.610;2024-03-02T15:06:32;11.00;99.90
70986;DHT22;58645;43.068;25.610;2024-03-02T15:08:58;11.00;99.90
70986;DHT22;58645;43.068;25.610;2024-03-02T15:11:24;11.00;99.90
70986;DHT22;58645;43.068;25.610;2024-03-02T15:13:50;11.00;99.90
70986;DHT22;58645;43.068;25.610;2024-03-02T15:16:16;11.00;99.90
70986;DHT22;58645;43.068;25.610;2024-03-02T15:18:42;10.90;99.90
70986;DHT22;58645;43.068;25.610;2024-03-02T15:21:08;10.90;99.90
70986;DHT22;58645;43.068;25.610;2024-03-02T15:23:33;10.90;99.90
70986;DHT22;58645;43.068;25.610;2024-03-02T15:25:59;10.80;99.90
70986;DHT22;58645;43.068;25.610;2024-03-02T15:28:25;10.80;99.90
70986;DHT22;58645;43.068;25.610;2024-03-02T15:30:51;10.70;99.90
70986;DHT22;58645;43.068;25.610;2024-03-02T15:33:17;10.60;99.90